Government of Jersey

Home Log in

Channel Islands Terminal Aerodrome Forecasts (TAFs)

Jersey Airport - EGJJ

EGJJ 042256Z 0500/0509 13018KT CAVOK=

Guernsey Airport - EGJB

EGJB 042256Z 0500/0509 13017KT CAVOK=

Alderney Airport - EGJA

EGJA 041236Z 0412/0421 CNL=